createdAt,value
2023-02-23T00:03:12.126Z,79.69
2023-02-23T00:07:12.979Z,80.00
2023-02-23T00:11:17.177Z,79.81
2023-02-23T00:15:18.974Z,79.49
2023-02-23T00:19:19.542Z,80.11
2023-02-23T00:23:23.036Z,79.64
2023-02-23T00:27:26.200Z,79.80
2023-02-23T00:31:29.597Z,80.75
2023-02-23T00:35:31.103Z,80.41
2023-02-23T00:39:32.563Z,80.89
2023-02-23T00:43:38.111Z,81.32
2023-02-23T00:47:39.611Z,81.21
2023-02-23T00:51:41.477Z,81.02
2023-02-23T00:55:44.930Z,81.69
2023-02-23T00:59:48.226Z,81.69
2023-02-23T01:03:49.666Z,82.12
2023-02-23T01:07:50.150Z,82.36
2023-02-23T01:11:51.777Z,82.21
2023-02-23T01:15:55.401Z,82.00
2023-02-23T01:20:00.989Z,81.85
2023-02-23T01:24:02.792Z,81.73
2023-02-23T01:28:04.062Z,81.80
2023-02-23T01:32:07.972Z,81.52
2023-02-23T01:36:09.587Z,81.50
2023-02-23T01:40:17.870Z,80.82
2023-02-23T01:45:03.355Z,81.20
2023-02-23T01:49:10.956Z,81.06
2023-02-23T01:53:11.964Z,80.96
2023-02-23T01:57:17.711Z,81.34
2023-02-23T02:01:19.782Z,81.23
2023-02-23T02:05:24.549Z,81.12
2023-02-23T02:09:28.708Z,80.70
2023-02-23T02:13:37.954Z,80.64
2023-02-23T02:17:54.113Z,81.45
2023-02-23T02:22:31.941Z,82.00
2023-02-23T02:26:52.418Z,81.65
2023-02-23T02:32:01.547Z,81.61
2023-02-23T02:36:53.954Z,81.20
2023-02-23T02:41:17.294Z,80.99
2023-02-23T02:45:29.202Z,80.88
2023-02-23T02:49:36.169Z,80.75
2023-02-23T02:53:50.076Z,81.33
2023-02-23T02:58:02.491Z,81.96
2023-02-23T03:02:16.119Z,82.15
2023-02-23T03:06:33.830Z,81.98
2023-02-23T03:11:02.347Z,82.02
2023-02-23T03:15:34.216Z,82.48
2023-02-23T03:19:54.391Z,82.94
2023-02-23T03:24:22.701Z,82.65
2023-02-23T03:28:43.127Z,82.71
2023-02-23T03:33:07.946Z,82.40
2023-02-23T03:37:33.214Z,82.89
2023-02-23T03:41:50.810Z,83.18
2023-02-23T03:46:06.387Z,83.40
2023-02-23T03:50:30.871Z,83.75
2023-02-23T03:54:50.797Z,83.88
2023-02-23T03:59:09.461Z,84.33
2023-02-23T04:03:30.576Z,83.88
2023-02-23T04:07:47.132Z,83.80
2023-02-23T04:12:13.620Z,84.02
2023-02-23T04:16:12.649Z,84.41
2023-02-23T04:20:16.817Z,84.46
2023-02-23T04:24:20.468Z,83.93
2023-02-23T04:28:23.445Z,83.78
2023-02-23T04:32:24.304Z,84.43
2023-02-23T04:36:24.980Z,84.11
2023-02-23T04:40:28.803Z,83.90
2023-02-23T04:44:29.105Z,83.69
2023-02-23T04:48:31.043Z,83.56
2023-02-23T04:52:32.445Z,83.44
2023-02-23T04:56:35.736Z,83.39
2023-02-23T05:00:43.663Z,83.73
2023-02-23T05:04:44.842Z,83.82
2023-02-23T05:08:45.867Z,83.60
2023-02-23T05:12:49.657Z,83.71
2023-02-23T05:16:51.588Z,83.15
2023-02-23T05:20:51.809Z,83.64
2023-02-23T05:24:57.320Z,83.86
2023-02-23T05:29:01.123Z,83.34
2023-02-23T05:33:01.675Z,83.65
2023-02-23T05:37:02.132Z,83.36
2023-02-23T05:41:07.349Z,82.50
2023-02-23T05:45:14.798Z,82.84
2023-02-23T05:49:17.190Z,81.34
2023-02-23T05:53:17.504Z,80.46
2023-02-23T05:57:18.166Z,79.42
2023-02-23T06:01:22.605Z,79.60
2023-02-23T06:05:22.986Z,80.21
2023-02-23T06:09:23.519Z,81.87
2023-02-23T06:13:25.072Z,81.72
2023-02-23T06:17:33.923Z,81.99
2023-02-23T06:21:34.749Z,81.56
2023-02-23T06:25:35.445Z,81.49
2023-02-23T06:29:37.392Z,81.09
2023-02-23T06:33:41.082Z,80.72
2023-02-23T06:37:43.497Z,81.52
2023-02-23T06:41:44.052Z,82.69
2023-02-23T06:45:44.563Z,81.53
2023-02-23T06:49:48.149Z,80.51
2023-02-23T06:53:48.557Z,79.95
2023-02-23T06:57:51.680Z,79.96
2023-02-23T07:01:52.083Z,79.78
2023-02-23T07:05:56.757Z,79.54
2023-02-23T07:09:57.190Z,78.81
2023-02-23T07:14:01.606Z,77.83
2023-02-23T07:18:01.789Z,77.47
2023-02-23T07:22:05.101Z,78.08
2023-02-23T07:26:05.648Z,77.47
2023-02-23T07:30:07.346Z,77.46
2023-02-23T07:34:07.939Z,74.95
2023-02-23T07:38:13.784Z,74.33
2023-02-23T07:42:14.324Z,74.91
2023-02-23T07:46:15.818Z,73.28
2023-02-23T07:50:17.078Z,72.01
2023-02-23T07:54:22.095Z,72.30
2023-02-23T07:58:22.495Z,72.06
2023-02-23T08:02:22.951Z,71.19
2023-02-23T08:06:23.858Z,71.30
2023-02-23T08:10:26.943Z,70.68
2023-02-23T08:14:29.565Z,69.72
2023-02-23T08:18:31.724Z,69.23
2023-02-23T08:22:48.297Z,68.60
2023-02-23T08:26:53.389Z,67.03
2023-02-23T08:30:55.410Z,66.88
2023-02-23T08:34:58.104Z,65.93
2023-02-23T08:39:00.842Z,64.69
2023-02-23T08:43:04.020Z,63.54
2023-02-23T08:47:04.822Z,64.06
2023-02-23T08:51:06.831Z,62.48
2023-02-23T08:55:11.969Z,64.07
2023-02-23T08:59:19.891Z,63.70
2023-02-23T09:03:26.382Z,63.65
2023-02-23T09:07:27.019Z,61.83
2023-02-23T09:11:29.489Z,60.68
2023-02-23T09:15:35.109Z,60.65
2023-02-23T09:19:37.077Z,59.49
2023-02-23T09:23:38.414Z,58.07
2023-02-23T09:27:40.172Z,57.42
2023-02-23T09:31:45.410Z,57.44
2023-02-23T09:35:46.042Z,55.47
2023-02-23T09:39:46.432Z,56.14
2023-02-23T09:43:59.141Z,55.75
2023-02-23T09:48:16.681Z,56.15
2023-02-23T09:52:28.041Z,55.12
2023-02-23T09:56:36.767Z,54.66
2023-02-23T10:00:47.388Z,53.75
2023-02-23T10:04:57.413Z,53.65
2023-02-23T10:09:17.501Z,53.49
2023-02-23T10:13:32.162Z,53.70
2023-02-23T10:17:42.854Z,53.86
2023-02-23T10:21:54.437Z,54.72
2023-02-23T10:26:01.065Z,57.04
2023-02-23T10:30:05.083Z,59.38
2023-02-23T10:34:15.612Z,60.89
2023-02-23T10:38:24.187Z,60.77
2023-02-23T10:42:32.042Z,61.89
2023-02-23T10:46:44.676Z,61.92
2023-02-23T10:50:49.238Z,60.09
2023-02-23T10:54:54.881Z,58.74
2023-02-23T10:58:59.041Z,56.92
2023-02-23T11:03:04.543Z,55.12
2023-02-23T11:07:20.012Z,53.62
2023-02-23T11:11:30.598Z,51.64
2023-02-23T11:15:49.993Z,53.26
2023-02-23T11:19:52.562Z,53.56
2023-02-23T11:23:56.229Z,54.74
2023-02-23T11:28:01.043Z,55.62
2023-02-23T11:32:09.848Z,56.90
2023-02-23T11:36:30.726Z,56.78
2023-02-23T11:40:36.158Z,57.78
2023-02-23T11:44:41.829Z,57.60
2023-02-23T11:48:54.314Z,58.78
2023-02-23T11:53:04.177Z,59.53
2023-02-23T11:57:06.322Z,61.03
2023-02-23T12:01:13.727Z,62.39
2023-02-23T12:05:26.590Z,63.13
2023-02-23T12:09:32.683Z,64.94
2023-02-23T12:13:42.819Z,63.84
2023-02-23T12:17:56.685Z,65.29
2023-02-23T12:22:06.879Z,65.93
2023-02-23T12:26:18.006Z,68.33
2023-02-23T12:30:30.212Z,69.27
2023-02-23T12:34:42.658Z,70.24
2023-02-23T12:38:54.744Z,68.63
2023-02-23T12:43:05.733Z,70.23
2023-02-23T12:47:19.152Z,69.41
2023-02-23T12:51:33.956Z,68.76
2023-02-23T12:55:49.822Z,68.69
2023-02-23T13:00:33.078Z,67.12
2023-02-23T13:05:15.592Z,67.08
2023-02-23T13:09:45.777Z,66.03
2023-02-23T13:14:00.408Z,64.46
2023-02-23T13:18:13.691Z,63.96
2023-02-23T13:22:43.784Z,64.92
2023-02-23T13:26:57.910Z,63.77
2023-02-23T13:31:00.103Z,63.10
2023-02-23T13:35:03.617Z,62.52
2023-02-23T13:39:45.340Z,63.69
2023-02-23T13:43:57.149Z,63.37
2023-02-23T13:48:07.101Z,63.81
2023-02-23T13:52:33.351Z,63.54
2023-02-23T13:56:45.507Z,63.90
2023-02-23T14:01:06.959Z,63.19
2023-02-23T14:05:19.685Z,62.63
2023-02-23T14:09:33.444Z,63.04
2023-02-23T14:13:36.276Z,63.19
2023-02-23T14:17:50.680Z,62.78
2023-02-23T14:22:00.035Z,63.11
2023-02-23T14:26:19.051Z,63.03
2023-02-23T14:30:31.629Z,62.54
2023-02-23T14:34:53.528Z,61.94
2023-02-23T14:39:03.138Z,61.17
2023-02-23T14:43:07.919Z,61.58
2023-02-23T14:47:17.109Z,61.34
2023-02-23T14:51:29.614Z,61.36
2023-02-23T14:55:35.527Z,61.28
2023-02-23T14:59:42.448Z,63.17
2023-02-23T15:03:43.179Z,64.16
2023-02-23T15:07:47.052Z,64.32
2023-02-23T15:11:54.465Z,63.27
2023-02-23T15:15:55.609Z,64.25
2023-02-23T15:20:14.935Z,64.39
2023-02-23T15:24:22.146Z,63.79
2023-02-23T15:28:29.656Z,63.09
2023-02-23T15:32:30.381Z,63.88
2023-02-23T15:36:41.441Z,63.54
2023-02-23T15:40:46.750Z,63.84
2023-02-23T15:44:50.786Z,64.76
2023-02-23T15:48:56.267Z,64.87
2023-02-23T15:53:05.073Z,64.27
2023-02-23T15:57:22.983Z,64.50
2023-02-23T16:01:27.279Z,64.95
2023-02-23T16:05:38.326Z,65.85
2023-02-23T16:09:53.990Z,67.55
2023-02-23T16:14:02.303Z,68.76
2023-02-23T16:18:08.117Z,68.78
2023-02-23T16:22:11.299Z,69.23
2023-02-23T16:26:21.480Z,69.86
2023-02-23T16:30:41.502Z,69.93
2023-02-23T16:34:54.292Z,69.34
2023-02-23T16:39:04.661Z,69.80
2023-02-23T16:43:07.808Z,70.04
2023-02-23T16:47:48.412Z,70.84
2023-02-23T16:51:49.851Z,71.19
2023-02-23T16:55:56.094Z,71.45
2023-02-23T17:00:00.752Z,71.50
2023-02-23T17:04:04.964Z,71.46
2023-02-23T17:08:06.703Z,71.45
2023-02-23T17:12:07.966Z,70.75
2023-02-23T17:16:10.874Z,70.24
2023-02-23T17:20:17.660Z,70.58
2023-02-23T17:24:19.228Z,70.62
2023-02-23T17:28:20.098Z,70.30
2023-02-23T17:32:22.374Z,70.86
2023-02-23T17:36:28.214Z,72.69
2023-02-23T17:40:31.365Z,72.20
2023-02-23T17:44:33.708Z,72.28
2023-02-23T17:48:39.524Z,72.97
2023-02-23T17:52:44.693Z,72.77
2023-02-23T17:56:48.334Z,73.38
2023-02-23T18:00:48.897Z,73.92
2023-02-23T18:04:50.576Z,74.97
2023-02-23T18:08:56.252Z,75.87
2023-02-23T18:12:57.326Z,77.25
2023-02-23T18:16:58.264Z,77.06
2023-02-23T18:21:02.907Z,78.79
2023-02-23T18:25:13.771Z,79.67
2023-02-23T18:29:14.408Z,79.87
2023-02-23T18:33:17.336Z,79.88
2023-02-23T18:37:25.783Z,79.73
2023-02-23T18:41:33.701Z,80.14
2023-02-23T18:45:36.104Z,79.84
2023-02-23T18:49:37.774Z,79.44
2023-02-23T18:53:42.045Z,80.46
2023-02-23T18:57:46.728Z,80.43
2023-02-23T19:01:49.225Z,80.47
2023-02-23T19:05:53.468Z,80.50
2023-02-23T19:09:54.528Z,80.88
2023-02-23T19:14:03.524Z,80.68
2023-02-23T19:18:07.834Z,79.77
2023-02-23T19:22:08.591Z,80.89
2023-02-23T19:26:10.682Z,80.98
2023-02-23T19:30:16.684Z,81.68
2023-02-23T19:34:17.362Z,81.58
2023-02-23T19:38:19.594Z,81.09
2023-02-23T19:42:20.747Z,81.85
2023-02-23T19:46:27.783Z,82.25
2023-02-23T19:50:29.523Z,83.16
2023-02-23T19:54:34.095Z,82.42
2023-02-23T19:58:35.467Z,82.06
2023-02-23T20:02:42.956Z,83.72
2023-02-23T20:06:47.780Z,84.31
2023-02-23T20:10:50.771Z,83.54
2023-02-23T20:14:51.083Z,83.18
2023-02-23T20:18:56.720Z,84.03
2023-02-23T20:22:58.469Z,83.68
2023-02-23T20:27:00.468Z,83.61
2023-02-23T20:31:13.709Z,83.33
2023-02-23T20:35:26.379Z,83.19
2023-02-23T20:39:30.480Z,84.06
2023-02-23T20:43:31.754Z,83.96
2023-02-23T20:47:32.592Z,83.72
2023-02-23T20:51:36.303Z,83.76
2023-02-23T20:55:36.708Z,83.83
2023-02-23T20:59:39.700Z,83.75
2023-02-23T21:03:40.889Z,84.11
2023-02-23T21:07:45.682Z,84.69
2023-02-23T21:11:48.017Z,84.51
2023-02-23T21:16:01.720Z,83.97
2023-02-23T21:20:07.067Z,83.29
2023-02-23T21:24:11.653Z,83.68
2023-02-23T21:28:12.117Z,84.25
2023-02-23T21:32:17.091Z,83.73
2023-02-23T21:36:18.093Z,83.48
2023-02-23T21:40:22.411Z,82.60
2023-02-23T21:44:24.788Z,83.20
2023-02-23T21:48:25.776Z,83.78
2023-02-23T21:52:26.570Z,83.94
2023-02-23T21:56:29.894Z,83.51
2023-02-23T22:00:33.819Z,83.51
2023-02-23T22:04:36.281Z,83.39
2023-02-23T22:08:38.257Z,84.10
2023-02-23T22:12:41.294Z,84.05
2023-02-23T22:16:44.260Z,83.90
2023-02-23T22:20:54.129Z,84.38
2023-02-23T22:24:55.895Z,84.50
2023-02-23T22:28:59.285Z,83.85
2023-02-23T22:33:01.962Z,83.30
2023-02-23T22:37:03.213Z,83.74
2023-02-23T22:41:05.713Z,83.54
2023-02-23T22:45:10.507Z,84.09
2023-02-23T22:49:12.376Z,84.55
2023-02-23T22:53:14.669Z,84.38
2023-02-23T22:57:15.646Z,84.79
2023-02-23T23:01:20.457Z,84.96
2023-02-23T23:05:21.813Z,83.50
2023-02-23T23:09:23.185Z,82.61
2023-02-23T23:13:24.364Z,82.92
2023-02-23T23:17:28.513Z,82.18
2023-02-23T23:21:29.482Z,82.61
2023-02-23T23:25:30.232Z,83.04
2023-02-23T23:29:32.703Z,82.98
2023-02-23T23:33:35.797Z,82.40
2023-02-23T23:37:39.732Z,82.85
2023-02-23T23:41:43.152Z,83.14
2023-02-23T23:45:44.083Z,83.05
2023-02-23T23:49:47.865Z,82.54
2023-02-23T23:53:48.271Z,83.05
2023-02-23T23:57:48.677Z,84.37
